createdAt,value
2018-04-15T00:01:35.819Z,97123.67
2018-04-15T00:04:05.412Z,97118.16
2018-04-15T00:06:35.059Z,97116.38
2018-04-15T00:09:05.182Z,97104.36
2018-04-15T00:11:40.263Z,97118.14
2018-04-15T00:14:11.458Z,97122.20
2018-04-15T00:16:43.214Z,97125.45
2018-04-15T00:19:14.260Z,97123.16
2018-04-15T00:21:43.991Z,97112.05
2018-04-15T00:24:14.823Z,97102.31
2018-04-15T00:26:46.453Z,97094.75
2018-04-15T00:29:16.050Z,97095.55
2018-04-15T00:31:46.155Z,97097.59
2018-04-15T00:34:16.104Z,97097.86
2018-04-15T00:36:47.351Z,97079.17
2018-04-15T00:39:17.134Z,97071.20
2018-04-15T00:41:46.676Z,97057.82
2018-04-15T00:44:16.589Z,97044.05
2018-04-15T00:46:46.192Z,97043.90
2018-04-15T00:49:19.162Z,97044.41
2018-04-15T00:51:49.089Z,97028.45
2018-04-15T00:54:19.116Z,97036.81
2018-04-15T00:56:48.679Z,97034.89
2018-04-15T00:59:18.324Z,97018.91
2018-04-15T01:01:48.133Z,97022.98
2018-04-15T01:04:19.182Z,97017.88
2018-04-15T01:06:48.986Z,97010.17
2018-04-15T01:09:19.735Z,97015.46
2018-04-15T01:11:50.906Z,97013.02
2018-04-15T01:14:23.438Z,96994.89
2018-04-15T01:16:53.432Z,96990.81
2018-04-15T01:19:23.936Z,96976.47
2018-04-15T01:21:54.839Z,96975.02
2018-04-15T01:24:25.783Z,96967.41
2018-04-15T01:26:55.371Z,96960.85
2018-04-15T01:29:25.160Z,96966.29
2018-04-15T01:31:55.010Z,96958.02
2018-04-15T01:34:25.694Z,96958.55
2018-04-15T01:36:55.350Z,96961.33
2018-04-15T01:39:26.776Z,96954.82
2018-04-15T01:41:56.829Z,96957.41
2018-04-15T01:44:26.564Z,96952.68
2018-04-15T01:46:57.598Z,96959.95
2018-04-15T01:49:27.806Z,96966.03
2018-04-15T01:51:58.843Z,96969.15
2018-04-15T01:54:29.215Z,96967.49
2018-04-15T01:57:00.981Z,96970.05
2018-04-15T01:59:34.785Z,96955.31
2018-04-15T02:02:05.434Z,96960.66
2018-04-15T02:04:35.258Z,96959.37
2018-04-15T02:07:13.529Z,96958.69
2018-04-15T02:09:44.731Z,96950.98
2018-04-15T02:12:18.443Z,96947.45
2018-04-15T02:14:50.513Z,96949.59
2018-04-15T02:17:20.428Z,96956.33
2018-04-15T02:19:51.826Z,96959.86
2018-04-15T02:22:22.246Z,96957.05
2018-04-15T02:24:52.444Z,96965.48
2018-04-15T02:27:25.177Z,96966.02
2018-04-15T02:29:54.987Z,96972.35
2018-04-15T02:32:24.630Z,96963.41
2018-04-15T02:34:57.122Z,96957.44
2018-04-15T02:37:27.023Z,96970.41
2018-04-15T02:39:56.823Z,96972.83
2018-04-15T02:42:26.465Z,96965.84
2018-04-15T02:44:57.438Z,96971.97
2018-04-15T02:47:28.083Z,96963.56
2018-04-15T02:50:05.123Z,96948.47
2018-04-15T02:52:36.505Z,96922.08
2018-04-15T02:55:09.720Z,96904.11
2018-04-15T02:57:39.546Z,96888.46
2018-04-15T03:00:09.557Z,96906.86
2018-04-15T03:02:39.090Z,96898.34
2018-04-15T03:05:09.009Z,96879.27
2018-04-15T03:07:38.910Z,96828.82
2018-04-15T03:10:08.464Z,96799.89
2018-04-15T03:12:38.107Z,96810.27
2018-04-15T03:15:09.771Z,96834.80
2018-04-15T03:17:39.429Z,96848.06
2018-04-15T03:20:09.260Z,96848.27
2018-04-15T03:22:39.677Z,96841.84
2018-04-15T03:25:09.773Z,96830.48
2018-04-15T03:27:39.528Z,96817.25
2018-04-15T03:30:11.029Z,96804.83
2018-04-15T03:32:41.311Z,96813.47
2018-04-15T03:35:12.025Z,96810.73
2018-04-15T03:37:42.659Z,96817.09
2018-04-15T03:40:12.955Z,96830.77
2018-04-15T03:42:44.964Z,96839.55
2018-04-15T03:45:17.031Z,96839.80
2018-04-15T03:47:46.773Z,96845.01
2018-04-15T03:50:19.100Z,96846.66
2018-04-15T03:52:49.209Z,96853.30
2018-04-15T03:55:19.695Z,96851.16
2018-04-15T03:57:49.469Z,96853.17
2018-04-15T04:00:20.074Z,96852.52
2018-04-15T04:02:51.780Z,96863.08
2018-04-15T04:05:21.494Z,96867.98
2018-04-15T04:07:51.082Z,96862.88
2018-04-15T04:10:20.556Z,96853.39
2018-04-15T04:12:50.863Z,96868.93
2018-04-15T04:15:21.679Z,96868.35
2018-04-15T04:18:09.517Z,96868.62
2018-04-15T04:20:57.829Z,96874.69
2018-04-15T04:23:45.329Z,96883.55
2018-04-15T04:26:16.735Z,96869.52
2018-04-15T04:28:49.220Z,96845.70
2018-04-15T04:31:19.568Z,96837.84
2018-04-15T04:33:50.836Z,96846.33
2018-04-15T04:36:20.492Z,96860.42
2018-04-15T04:38:50.218Z,96865.41
2018-04-15T04:41:20.638Z,96851.05
2018-04-15T04:43:56.236Z,96870.67
2018-04-15T04:46:26.964Z,96870.83
2018-04-15T04:48:57.239Z,96867.73
2018-04-15T04:51:26.777Z,96862.05
2018-04-15T04:53:58.334Z,96872.07
2018-04-15T04:56:28.188Z,96878.53
2018-04-15T04:58:57.706Z,96862.28
2018-04-15T05:01:27.547Z,96863.30
2018-04-15T05:03:57.249Z,96865.88
2018-04-15T05:06:27.262Z,96868.55
2018-04-15T05:08:56.804Z,96885.30
2018-04-15T05:11:27.077Z,96903.29
2018-04-15T05:14:01.529Z,96912.63
2018-04-15T05:16:31.193Z,96904.97
2018-04-15T05:19:01.672Z,96896.98
2018-04-15T05:21:32.334Z,96891.30
2018-04-15T05:24:02.717Z,96877.55
2018-04-15T05:26:34.698Z,96872.93
2018-04-15T05:29:04.572Z,96871.55
2018-04-15T05:31:34.175Z,96876.95
2018-04-15T05:34:04.081Z,96896.97
2018-04-15T05:36:33.697Z,96914.84
2018-04-15T05:39:03.362Z,96920.77
2018-04-15T05:41:33.138Z,96911.73
2018-04-15T05:44:03.256Z,96899.70
2018-04-15T05:46:32.980Z,96913.94
2018-04-15T05:49:02.726Z,96911.88
2018-04-15T05:51:33.192Z,96934.53
2018-04-15T05:54:02.837Z,96938.72
2018-04-15T05:56:35.109Z,96946.97
2018-04-15T05:59:04.807Z,96947.58
2018-04-15T06:01:34.904Z,96945.82
2018-04-15T06:04:04.661Z,96907.92
2018-04-15T06:06:35.950Z,96872.58
2018-04-15T06:09:06.282Z,96899.80
2018-04-15T06:11:36.184Z,96911.86
2018-04-15T06:14:06.453Z,96922.23
2018-04-15T06:16:36.002Z,96918.75
2018-04-15T06:19:06.320Z,96893.77
2018-04-15T06:21:36.917Z,96859.83
2018-04-15T06:24:06.531Z,96837.59
2018-04-15T06:26:36.299Z,96835.77
2018-04-15T06:29:05.799Z,96835.89
2018-04-15T06:31:36.987Z,96844.55
2018-04-15T06:34:06.800Z,96822.33
2018-04-15T06:36:36.491Z,96828.41
2018-04-15T06:39:09.065Z,96817.57
2018-04-15T06:41:38.570Z,96810.36
2018-04-15T06:44:09.100Z,96824.16
2018-04-15T06:46:38.827Z,96830.06
2018-04-15T06:49:08.461Z,96830.23
2018-04-15T06:51:38.299Z,96843.04
2018-04-15T06:54:08.643Z,96860.87
2018-04-15T06:56:38.272Z,96855.00
2018-04-15T06:59:07.948Z,96840.03
2018-04-15T07:01:38.642Z,96831.36
2018-04-15T07:04:08.343Z,96835.97
2018-04-15T07:06:40.794Z,96841.97
2018-04-15T07:09:11.455Z,96838.19
2018-04-15T07:11:41.065Z,96828.31
2018-04-15T07:14:11.829Z,96826.61
2018-04-15T07:16:41.455Z,96843.05
2018-04-15T07:19:11.517Z,96832.34
2018-04-15T07:21:41.253Z,96843.09
2018-04-15T07:24:11.263Z,96857.72
2018-04-15T07:26:41.164Z,96866.49
2018-04-15T07:29:11.665Z,96881.24
2018-04-15T07:31:41.814Z,96876.54
2018-04-15T07:34:12.020Z,96849.55
2018-04-15T07:36:47.066Z,96839.64
2018-04-15T07:39:17.533Z,96828.49
2018-04-15T07:41:47.248Z,96833.91
2018-04-15T07:44:17.354Z,96844.54
2018-04-15T07:46:46.867Z,96840.44
2018-04-15T07:49:16.431Z,96855.55
2018-04-15T07:51:46.994Z,96863.08
2018-04-15T07:54:17.058Z,96850.06
2018-04-15T07:56:47.010Z,96840.38
2018-04-15T07:59:16.828Z,96830.05
2018-04-15T08:01:46.509Z,96827.30
2018-04-15T08:04:16.034Z,96823.96
2018-04-15T08:06:45.635Z,96819.95
2018-04-15T08:09:15.861Z,96821.38
2018-04-15T08:11:45.796Z,96828.88
2018-04-15T08:14:15.407Z,96819.02
2018-04-15T08:16:45.461Z,96817.52
2018-04-15T08:19:15.023Z,96812.63
2018-04-15T08:21:44.994Z,96817.05
2018-04-15T08:24:15.367Z,96815.05
2018-04-15T08:26:45.486Z,96825.02
2018-04-15T08:29:15.047Z,96831.34
2018-04-15T08:31:45.671Z,96840.70
2018-04-15T08:34:16.366Z,96848.35
2018-04-15T08:36:45.959Z,96844.58
2018-04-15T08:39:15.680Z,96843.73
2018-04-15T08:41:45.763Z,96853.81
2018-04-15T08:44:16.228Z,96853.30
2018-04-15T08:46:46.150Z,96873.25
2018-04-15T08:49:15.957Z,96868.78
2018-04-15T08:51:46.177Z,96856.46
2018-04-15T08:54:15.786Z,96842.13
2018-04-15T08:56:46.151Z,96847.02
2018-04-15T08:59:34.511Z,96854.35
2018-04-15T09:02:07.541Z,96868.00
2018-04-15T09:04:58.308Z,96851.03
2018-04-15T09:07:55.608Z,96846.09
2018-04-15T09:10:29.514Z,96850.62
2018-04-15T09:13:00.224Z,96841.02
2018-04-15T09:15:29.893Z,96833.62
2018-04-15T09:17:59.750Z,96836.73
2018-04-15T09:20:30.405Z,96828.84
2018-04-15T09:23:00.610Z,96820.36
2018-04-15T09:25:31.549Z,96821.59
2018-04-15T09:28:02.035Z,96829.70
2018-04-15T09:30:32.312Z,96835.05
2018-04-15T09:33:02.033Z,96830.86
2018-04-15T09:35:34.087Z,96828.42
2018-04-15T09:38:04.853Z,96818.94
2018-04-15T09:40:36.389Z,96819.61
2018-04-15T09:43:05.937Z,96819.76
2018-04-15T09:45:36.921Z,96819.75
2018-04-15T09:48:06.548Z,96818.02
2018-04-15T09:50:36.359Z,96818.05
2018-04-15T09:53:06.068Z,96815.97
2018-04-15T09:55:35.702Z,96825.52
2018-04-15T09:58:11.702Z,96829.56
2018-04-15T10:00:41.248Z,96823.55
2018-04-15T10:03:11.352Z,96831.80
2018-04-15T10:05:41.481Z,96842.16
2018-04-15T10:08:11.649Z,96854.34
2018-04-15T10:10:41.987Z,96863.02
2018-04-15T10:13:11.557Z,96866.76
2018-04-15T10:15:41.116Z,96875.67
2018-04-15T10:18:11.372Z,96870.53
2018-04-15T10:20:41.077Z,96871.59
2018-04-15T10:23:10.879Z,96863.29
2018-04-15T10:25:40.592Z,96896.53
2018-04-15T10:28:10.832Z,96893.02
2018-04-15T10:30:40.415Z,96892.62
2018-04-15T10:33:10.405Z,96901.09
2018-04-15T10:35:40.759Z,96892.47
2018-04-15T10:38:10.479Z,96894.13
2018-04-15T10:40:40.113Z,96892.78
2018-04-15T10:43:09.676Z,96887.39
2018-04-15T10:45:39.230Z,96901.47
2018-04-15T10:48:08.929Z,96908.46
2018-04-15T10:50:38.837Z,96903.69
2018-04-15T10:53:10.096Z,96896.77
2018-04-15T10:55:41.125Z,96871.67
2018-04-15T10:58:13.353Z,96870.47
2018-04-15T11:00:44.843Z,96861.94
2018-04-15T11:03:16.051Z,96873.47
2018-04-15T11:05:46.511Z,96867.03
2018-04-15T11:08:16.324Z,96858.02
2018-04-15T11:10:46.009Z,96862.98
2018-04-15T11:13:16.069Z,96867.26
2018-04-15T11:15:46.562Z,96868.86
2018-04-15T11:18:18.811Z,96867.27
2018-04-15T11:20:48.861Z,96874.54
2018-04-15T11:23:18.423Z,96872.58
2018-04-15T11:25:48.895Z,96871.39
2018-04-15T11:28:18.414Z,96883.68
2018-04-15T11:30:48.127Z,96880.62
2018-04-15T11:33:18.625Z,96894.59
2018-04-15T11:35:48.378Z,96894.27
2018-04-15T11:38:18.047Z,96887.81
2018-04-15T11:40:47.599Z,96895.80
2018-04-15T11:43:17.903Z,96901.38
2018-04-15T11:48:40.966Z,96933.34
2018-04-15T11:51:11.775Z,96944.95
2018-04-15T11:53:42.149Z,96955.00
2018-04-15T11:56:13.192Z,96942.78
2018-04-15T11:58:44.006Z,96942.03
2018-04-15T12:01:13.858Z,96943.52
2018-04-15T12:03:44.359Z,96954.28
2018-04-15T12:06:14.409Z,96953.13
2018-04-15T12:08:45.009Z,96930.48
2018-04-15T12:11:15.555Z,96896.26
2018-04-15T12:13:45.893Z,96887.81
2018-04-15T12:25:39.224Z,96876.28
2018-04-15T12:28:09.086Z,96874.62
2018-04-15T12:30:38.973Z,96871.28
2018-04-15T12:33:08.764Z,96857.66
2018-04-15T12:35:38.816Z,96820.40
2018-04-15T12:38:10.181Z,96795.64
2018-04-15T12:40:39.785Z,96774.24
2018-04-15T12:43:09.820Z,96751.45
2018-04-15T12:45:39.573Z,96739.69
2018-04-15T12:48:09.774Z,96714.13
2018-04-15T12:50:39.474Z,96709.39
2018-04-15T12:53:10.339Z,96709.91
2018-04-15T12:55:41.241Z,96703.75
2018-04-15T12:58:11.408Z,96701.47
2018-04-15T13:00:41.748Z,96701.73
2018-04-15T13:03:11.868Z,96681.51
2018-04-15T13:05:43.467Z,96663.92
2018-04-15T13:08:13.890Z,96659.48
2018-04-15T13:10:43.654Z,96653.88
2018-04-15T13:13:19.567Z,96649.16
2018-04-15T13:15:49.426Z,96654.50
2018-04-15T13:18:19.617Z,96658.43
2018-04-15T13:20:50.172Z,96644.38
2018-04-15T13:23:20.651Z,96639.86
2018-04-15T13:25:50.365Z,96628.53
2018-04-15T13:28:21.946Z,96614.05
2018-04-15T13:30:51.660Z,96606.10
2018-04-15T13:33:21.308Z,96607.16
2018-04-15T13:35:52.602Z,96608.14
2018-04-15T13:38:22.620Z,96624.15
2018-04-15T13:40:57.357Z,96612.72
2018-04-15T13:43:32.900Z,96586.94
2018-04-15T13:46:04.511Z,96611.28
2018-04-15T13:48:39.908Z,96611.35
2018-04-15T13:51:10.397Z,96589.00
2018-04-15T13:53:41.077Z,96603.42
2018-04-15T13:56:10.781Z,96617.05
2018-04-15T13:58:40.576Z,96625.14
2018-04-15T14:01:11.598Z,96628.70
2018-04-15T14:03:50.817Z,96615.89
2018-04-15T14:06:20.888Z,96638.52
2018-04-15T14:08:50.873Z,96639.34
2018-04-15T14:11:21.193Z,96619.52
2018-04-15T14:13:51.257Z,96637.72
2018-04-15T14:16:21.501Z,96619.61
2018-04-15T14:18:52.330Z,96615.59
2018-04-15T14:21:22.206Z,96614.73
2018-04-15T14:23:52.162Z,96605.72
2018-04-15T14:26:22.401Z,96604.35
2018-04-15T14:28:52.529Z,96610.27
2018-04-15T14:31:22.658Z,96615.36
2018-04-15T14:33:52.760Z,96602.91
2018-04-15T14:36:22.650Z,96602.47
2018-04-15T14:38:52.614Z,96608.57
2018-04-15T14:41:22.485Z,96607.27
2018-04-15T14:43:52.515Z,96590.72
2018-04-15T14:46:23.456Z,96594.44
2018-04-15T14:48:53.893Z,96589.25
2018-04-15T14:51:25.956Z,96590.87
2018-04-15T14:53:56.768Z,96592.30
2018-04-15T14:56:27.224Z,96583.09
2018-04-15T14:58:58.671Z,96586.53
2018-04-15T15:01:30.331Z,96584.77
2018-04-15T15:04:01.542Z,96578.02
2018-04-15T15:06:33.426Z,96573.02
2018-04-15T15:09:05.389Z,96567.97
2018-04-15T15:11:36.428Z,96560.93
2018-04-15T15:14:07.275Z,96554.38
2018-04-15T15:16:38.208Z,96546.97
2018-04-15T15:19:16.832Z,96543.75
2018-04-15T15:21:49.579Z,96549.33
2018-04-15T15:24:19.899Z,96558.20
2018-04-15T15:26:50.401Z,96552.00
2018-04-15T15:29:21.526Z,96552.84
2018-04-15T15:31:52.467Z,96556.21
2018-04-15T15:34:23.237Z,96544.68
2018-04-15T15:36:53.506Z,96540.61
2018-04-15T15:49:22.278Z,96532.52
2018-04-15T15:51:53.420Z,96524.59
2018-04-15T15:54:23.955Z,96524.92
2018-04-15T15:56:54.485Z,96528.28
2018-04-15T15:59:24.796Z,96525.55
2018-04-15T16:01:55.452Z,96529.08
2018-04-15T16:04:27.012Z,96529.12
2018-04-15T16:06:57.719Z,96529.66
2018-04-15T16:09:28.510Z,96533.81
2018-04-15T16:12:00.271Z,96536.67
2018-04-15T16:14:30.479Z,96529.05
2018-04-15T16:17:01.385Z,96533.46
2018-04-15T16:19:31.804Z,96534.55
2018-04-15T16:22:02.032Z,96536.57
2018-04-15T16:24:32.452Z,96538.31
2018-04-15T16:27:03.305Z,96536.23
2018-04-15T16:29:33.637Z,96530.70
2018-04-15T16:32:03.742Z,96546.17
2018-04-15T16:34:33.995Z,96547.31
2018-04-15T16:37:04.496Z,96550.05
2018-04-15T16:39:34.942Z,96552.83
2018-04-15T16:42:05.456Z,96541.90
2018-04-15T16:44:36.555Z,96550.19
2018-04-15T16:47:07.742Z,96553.12
2018-04-15T16:49:38.121Z,96551.91
2018-04-15T16:52:09.147Z,96548.59
2018-04-15T16:54:40.094Z,96546.21
2018-04-15T16:57:29.256Z,96553.67
2018-04-15T17:00:48.750Z,96542.56
2018-04-15T17:07:10.653Z,96552.62
2018-04-15T17:09:41.901Z,96549.39
2018-04-15T17:12:13.097Z,96544.00
2018-04-15T17:14:43.411Z,96546.47
2018-04-15T17:17:14.889Z,96550.13
2018-04-15T17:19:45.250Z,96545.98
2018-04-15T17:22:16.039Z,96555.84
2018-04-15T17:24:46.014Z,96554.66
2018-04-15T17:27:16.639Z,96555.84
2018-04-15T17:29:48.828Z,96559.73
2018-04-15T17:32:24.599Z,96572.27
2018-04-15T17:34:54.698Z,96578.16
2018-04-15T17:37:25.891Z,96584.91
2018-04-15T17:39:57.331Z,96583.52
2018-04-15T17:42:27.402Z,96595.84
2018-04-15T17:44:57.606Z,96592.08
2018-04-15T17:47:27.985Z,96598.30
2018-04-15T17:49:58.358Z,96603.18
2018-04-15T17:52:28.514Z,96602.09
2018-04-15T17:55:00.277Z,96609.95
2018-04-15T17:57:31.486Z,96614.56
2018-04-15T18:00:01.782Z,96624.08
2018-04-15T18:02:32.069Z,96625.58
2018-04-15T18:05:02.459Z,96629.09
2018-04-15T18:07:40.024Z,96632.45
2018-04-15T18:10:10.133Z,96633.90
2018-04-15T18:12:40.335Z,96635.70
2018-04-15T18:15:11.379Z,96645.31
2018-04-15T18:17:42.999Z,96645.32
2018-04-15T18:20:14.839Z,96654.30
2018-04-15T18:22:45.100Z,96657.09
2018-04-15T18:25:17.458Z,96663.48
2018-04-15T18:27:47.791Z,96664.27
2018-04-15T18:30:18.926Z,96659.62
2018-04-15T18:32:50.205Z,96664.73
2018-04-15T18:35:20.506Z,96665.90
2018-04-15T18:37:50.919Z,96670.08
2018-04-15T18:40:21.072Z,96675.45
2018-04-15T18:42:52.083Z,96680.15
2018-04-15T18:45:22.296Z,96682.45
2018-04-15T18:47:52.783Z,96678.98
2018-04-15T18:50:24.126Z,96681.27
2018-04-15T18:52:55.299Z,96687.94
2018-04-15T18:55:26.284Z,96687.83
2018-04-15T18:57:56.807Z,96693.33
2018-04-15T19:00:27.337Z,96696.96
2018-04-15T19:02:58.316Z,96696.38
2018-04-15T19:05:29.221Z,96698.73
2018-04-15T19:07:59.406Z,96708.66
2018-04-15T19:10:29.967Z,96714.73
2018-04-15T19:13:00.385Z,96712.55
2018-04-15T19:15:30.440Z,96719.27
2018-04-15T19:18:00.773Z,96723.23
2018-04-15T19:20:32.926Z,96722.97
2018-04-15T19:23:07.853Z,96732.81
2018-04-15T19:25:43.106Z,96737.31
2018-04-15T19:28:14.856Z,96739.17
2018-04-15T19:30:44.994Z,96751.86
2018-04-15T19:33:16.880Z,96755.02
2018-04-15T19:35:47.142Z,96756.83
2018-04-15T19:38:17.508Z,96755.47
2018-04-15T19:40:49.363Z,96762.90
2018-04-15T19:43:21.398Z,96759.33
2018-04-15T19:45:51.395Z,96760.12
2018-04-15T19:48:22.351Z,96761.70
2018-04-15T19:50:52.669Z,96760.43
2018-04-15T19:53:23.312Z,96759.66
2018-04-15T19:55:53.741Z,96755.71
2018-04-15T19:58:24.187Z,96756.29
2018-04-15T20:00:55.318Z,96754.34
2018-04-15T20:03:26.614Z,96753.77
2018-04-15T20:05:59.659Z,96752.61
2018-04-15T20:08:30.552Z,96753.95
2018-04-15T20:11:00.753Z,96758.59
2018-04-15T20:13:31.028Z,96752.83
2018-04-15T20:16:01.418Z,96753.73
2018-04-15T20:18:32.392Z,96745.98
2018-04-15T20:21:02.792Z,96742.75
2018-04-15T20:23:32.767Z,96744.64
2018-04-15T20:26:03.682Z,96736.05
2018-04-15T20:28:33.905Z,96733.75
2018-04-15T20:31:04.432Z,96740.70
2018-04-15T20:33:35.957Z,96736.87
2018-04-15T20:36:07.348Z,96735.09
2018-04-15T20:38:37.664Z,96731.66
2018-04-15T20:41:08.185Z,96726.63
2018-04-15T20:43:38.319Z,96725.98
2018-04-15T20:46:08.572Z,96735.03
2018-04-15T20:48:39.585Z,96728.27
2018-04-15T20:51:11.482Z,96732.80
2018-04-15T20:53:41.965Z,96729.15
2018-04-15T20:56:12.345Z,96726.81
2018-04-15T20:58:43.039Z,96730.29
2018-04-15T21:01:13.762Z,96731.73
2018-04-15T21:03:45.921Z,96726.27
2018-04-15T21:06:16.343Z,96723.58
2018-04-15T21:08:46.930Z,96729.75
2018-04-15T21:11:18.328Z,96734.36
2018-04-15T21:13:50.268Z,96728.20
2018-04-15T21:16:20.409Z,96729.31
2018-04-15T21:18:50.999Z,96731.11
2018-04-15T21:21:21.065Z,96727.00
2018-04-15T21:23:52.338Z,96732.74
2018-04-15T21:26:22.673Z,96728.76
2018-04-15T21:28:54.640Z,96729.83
2018-04-15T21:31:34.598Z,96736.30
2018-04-15T21:34:06.986Z,96743.34
2018-04-15T21:37:00.739Z,96736.91
2018-04-15T21:40:05.185Z,96735.30
2018-04-15T21:43:02.675Z,96733.26
2018-04-15T21:45:33.136Z,96730.77
2018-04-15T21:48:03.945Z,96732.78
2018-04-15T21:50:34.204Z,96735.11
2018-04-15T21:53:04.863Z,96736.05
2018-04-15T21:55:35.232Z,96730.36
2018-04-15T21:58:05.354Z,96730.93
2018-04-15T22:00:38.171Z,96732.69
2018-04-15T22:03:09.968Z,96739.45
2018-04-15T22:05:46.952Z,96738.94
2018-04-15T22:08:17.856Z,96735.60
2018-04-15T22:10:49.810Z,96735.19
2018-04-15T22:13:20.678Z,96732.59
2018-04-15T22:15:51.560Z,96729.86
2018-04-15T22:18:26.581Z,96727.56
2018-04-15T22:20:57.548Z,96715.22
2018-04-15T22:23:27.051Z,96713.89
2018-04-15T22:26:02.603Z,96717.54
2018-04-15T22:28:33.385Z,96711.47
2018-04-15T22:31:05.733Z,96713.92
2018-04-15T22:33:36.333Z,96708.52
2018-04-15T22:36:06.586Z,96711.19
2018-04-15T22:38:37.063Z,96714.70
2018-04-15T22:41:07.541Z,96708.27
2018-04-15T22:43:38.963Z,96707.48
2018-04-15T22:46:10.887Z,96704.72
2018-04-15T22:48:46.710Z,96705.56
2018-04-15T22:51:17.009Z,96700.47
2018-04-15T22:53:48.628Z,96704.02
2018-04-15T22:56:19.029Z,96701.39
2018-04-15T22:58:50.778Z,96700.86
2018-04-15T23:01:22.362Z,96700.40
2018-04-15T23:03:54.267Z,96705.31
2018-04-15T23:06:26.581Z,96698.89
2018-04-15T23:08:57.328Z,96694.98
2018-04-15T23:11:29.284Z,96692.95
2018-04-15T23:13:59.371Z,96695.09
2018-04-15T23:16:32.396Z,96690.09
2018-04-15T23:19:03.161Z,96686.94
2018-04-15T23:21:34.079Z,96690.59
2018-04-15T23:24:07.709Z,96692.34
2018-04-15T23:26:39.599Z,96697.23
2018-04-15T23:29:09.978Z,96696.24
2018-04-15T23:31:41.166Z,96696.22
2018-04-15T23:34:13.822Z,96695.58
2018-04-15T23:36:44.925Z,96703.41
2018-04-15T23:39:17.258Z,96695.98
2018-04-15T23:41:48.861Z,96692.50
2018-04-15T23:44:19.287Z,96687.64
2018-04-15T23:46:49.784Z,96690.04
2018-04-15T23:49:21.249Z,96690.33
2018-04-15T23:51:51.355Z,96683.82
2018-04-15T23:54:20.907Z,96688.33
2018-04-15T23:56:55.970Z,96682.98
2018-04-15T23:59:26.773Z,96681.80
